createdAt,value
2023-01-26T00:03:13.420Z,26.52
2023-01-26T00:08:15.551Z,32.63
2023-01-26T00:13:19.333Z,29.02
2023-01-26T00:18:21.448Z,28.55
2023-01-26T00:23:23.647Z,29.65
2023-01-26T00:28:28.680Z,31.15
2023-01-26T00:33:30.859Z,28.00
2023-01-26T00:38:33.030Z,31.58
2023-01-26T00:43:36.504Z,28.63
2023-01-26T00:48:38.632Z,29.92
2023-01-26T00:53:40.706Z,26.33
2023-01-26T00:58:44.294Z,28.00
2023-01-26T01:03:46.386Z,25.42
2023-01-26T01:08:48.859Z,25.00
2023-01-26T01:13:52.385Z,26.27
2023-01-26T01:18:55.196Z,25.88
2023-01-26T01:23:57.504Z,26.38
2023-01-26T01:29:01.123Z,23.75
2023-01-26T01:34:03.310Z,22.10
2023-01-26T01:39:05.461Z,20.27
2023-01-26T01:44:20.685Z,23.08
2023-01-26T01:49:28.225Z,19.35
2023-01-26T01:54:36.480Z,18.52
2023-01-26T01:59:40.129Z,19.83
2023-01-26T02:04:42.651Z,18.60
2023-01-26T02:09:45.493Z,19.58
2023-01-26T02:14:51.455Z,17.20
2023-01-26T02:20:01.022Z,17.75
2023-01-26T02:25:10.248Z,13.75
2023-01-26T02:30:16.215Z,16.48
2023-01-26T02:35:18.532Z,16.15
2023-01-26T02:40:30.562Z,17.05
2023-01-26T02:45:34.863Z,16.05
2023-01-26T02:50:37.053Z,15.80
2023-01-26T02:55:39.126Z,14.50
2023-01-26T03:00:42.747Z,14.50
2023-01-26T03:05:45.480Z,14.63
2023-01-26T03:10:48.802Z,12.90
2023-01-26T03:15:52.558Z,14.65
2023-01-26T03:20:54.971Z,15.80
2023-01-26T03:25:57.689Z,14.45
2023-01-26T03:31:01.296Z,13.77
2023-01-26T03:36:03.695Z,14.95
2023-01-26T03:41:05.757Z,14.48
2023-01-26T03:46:09.495Z,14.60
2023-01-26T03:51:11.523Z,14.40
2023-01-26T03:56:13.655Z,15.95
2023-01-26T04:01:17.322Z,12.35
2023-01-26T04:06:19.431Z,14.02
2023-01-26T04:11:21.583Z,14.75
2023-01-26T04:16:25.392Z,14.38
2023-01-26T04:21:27.591Z,14.27
2023-01-26T04:26:31.933Z,15.00
2023-01-26T04:31:35.818Z,14.68
2023-01-26T04:36:38.032Z,16.90
2023-01-26T04:41:42.274Z,14.25
2023-01-26T04:46:46.131Z,14.88
2023-01-26T04:51:48.276Z,16.33
2023-01-26T04:56:50.417Z,14.68
2023-01-26T05:01:54.016Z,15.45
2023-01-26T05:06:56.064Z,13.95
2023-01-26T05:11:58.518Z,16.40
2023-01-26T05:17:02.072Z,13.07
2023-01-26T05:22:04.178Z,12.43
2023-01-26T05:27:08.011Z,12.75
2023-01-26T05:32:11.945Z,13.23
2023-01-26T05:37:15.178Z,18.80
2023-01-26T05:42:18.314Z,14.75
2023-01-26T05:47:21.955Z,13.88
2023-01-26T05:52:24.116Z,11.85
2023-01-26T05:57:26.228Z,17.27
2023-01-26T06:02:29.778Z,16.20
2023-01-26T06:07:32.331Z,14.73
2023-01-26T06:12:34.433Z,16.02
2023-01-26T06:17:38.045Z,17.02
2023-01-26T06:22:40.300Z,15.35
2023-01-26T06:27:42.734Z,14.23
2023-01-26T06:32:49.260Z,16.85
2023-01-26T06:37:51.548Z,14.43
2023-01-26T06:42:53.693Z,18.58
2023-01-26T06:47:57.466Z,18.63
2023-01-26T06:53:00.795Z,18.90
2023-01-26T06:58:03.103Z,20.38
2023-01-26T07:03:06.691Z,20.58
2023-01-26T07:08:10.025Z,17.27
2023-01-26T07:13:12.114Z,16.95
2023-01-26T07:18:15.888Z,32.67
2023-01-26T07:23:17.986Z,22.80
2023-01-26T07:28:20.169Z,28.00
2023-01-26T07:33:23.783Z,19.75
2023-01-26T07:38:26.808Z,21.52
2023-01-26T07:43:28.976Z,21.23
2023-01-26T07:48:32.539Z,21.83
2023-01-26T07:53:35.232Z,26.33
2023-01-26T07:58:37.514Z,23.40
2023-01-26T08:03:42.003Z,19.15
2023-01-26T08:08:44.162Z,20.75
2023-01-26T08:13:46.381Z,16.85
2023-01-26T08:18:50.303Z,19.65
2023-01-26T08:23:52.821Z,31.13
2023-01-26T08:28:55.074Z,28.58
2023-01-26T08:33:59.106Z,29.33
2023-01-26T08:39:01.303Z,19.25
2023-01-26T08:44:03.472Z,28.48
2023-01-26T08:49:06.983Z,35.78
2023-01-26T08:54:09.214Z,34.22
2023-01-26T08:59:11.569Z,31.70
2023-01-26T09:04:15.165Z,53.95
2023-01-26T09:09:17.271Z,33.05
2023-01-26T09:14:19.394Z,89.43
2023-01-26T09:19:23.070Z,29.20
2023-01-26T09:24:25.451Z,28.40
2023-01-26T09:29:27.611Z,31.23
2023-01-26T09:34:31.216Z,29.40
2023-01-26T09:39:33.475Z,21.80
2023-01-26T09:44:45.247Z,20.67
2023-01-26T09:49:56.784Z,17.38
2023-01-26T09:55:02.755Z,15.45
2023-01-26T10:00:10.230Z,15.05
2023-01-26T10:05:20.706Z,13.48
2023-01-26T10:10:29.400Z,17.42
2023-01-26T10:15:36.908Z,19.83
2023-01-26T10:20:45.246Z,14.43
2023-01-26T10:25:47.746Z,15.57
2023-01-26T10:30:50.024Z,15.77
2023-01-26T10:35:54.187Z,14.23
2023-01-26T10:40:58.281Z,16.42
2023-01-26T10:46:03.258Z,13.23
2023-01-26T10:51:21.813Z,13.48
2023-01-26T10:56:24.215Z,14.57
2023-01-26T11:01:26.420Z,11.77
2023-01-26T11:06:31.565Z,16.67
2023-01-26T11:11:33.672Z,10.68
2023-01-26T11:16:36.515Z,16.75
2023-01-26T11:21:46.426Z,13.43
2023-01-26T11:27:20.404Z,8.57
2023-01-26T11:32:34.512Z,12.43
2023-01-26T11:37:43.042Z,11.43
2023-01-26T11:42:54.716Z,11.50
2023-01-26T11:48:17.914Z,12.85
2023-01-26T11:53:38.487Z,6.82
2023-01-26T11:58:45.317Z,10.13
2023-01-26T12:03:50.759Z,8.50
2023-01-26T12:09:00.337Z,9.00
2023-01-26T12:14:18.935Z,9.15
2023-01-26T12:19:38.233Z,7.75
2023-01-26T12:25:16.269Z,9.90
2023-01-26T12:30:26.916Z,14.70
2023-01-26T12:35:46.124Z,4.53
2023-01-26T12:41:02.342Z,9.85
2023-01-26T12:46:06.963Z,4.80
2023-01-26T12:51:12.833Z,6.72
2023-01-26T12:56:23.568Z,6.47
2023-01-26T13:01:36.980Z,11.95
2023-01-26T13:06:39.319Z,7.03
2023-01-26T13:11:46.836Z,8.35
2023-01-26T13:16:49.048Z,3.75
2023-01-26T13:21:51.328Z,5.15
2023-01-26T13:26:56.668Z,8.05
2023-01-26T13:32:00.912Z,6.18
2023-01-26T13:37:13.230Z,11.70
2023-01-26T13:42:23.920Z,10.45
2023-01-26T13:47:32.678Z,6.13
2023-01-26T13:52:42.385Z,13.75
2023-01-26T13:57:46.226Z,11.27
2023-01-26T14:02:51.391Z,4.45
2023-01-26T14:07:53.660Z,8.52
2023-01-26T14:12:57.862Z,6.50
2023-01-26T14:18:01.841Z,9.25
2023-01-26T14:23:14.180Z,9.50
2023-01-26T14:28:22.667Z,7.72
2023-01-26T14:33:25.140Z,10.05
2023-01-26T14:38:29.473Z,5.13
2023-01-26T14:43:33.019Z,12.48
2023-01-26T14:48:40.894Z,10.90
2023-01-26T14:53:49.640Z,7.40
2023-01-26T14:58:55.226Z,6.80
2023-01-26T15:04:01.555Z,11.10
2023-01-26T15:09:06.623Z,8.95
2023-01-26T15:14:33.096Z,5.03
2023-01-26T15:19:41.996Z,3.90
2023-01-26T15:24:47.283Z,9.63
2023-01-26T15:29:58.265Z,7.82
2023-01-26T15:35:07.439Z,8.77
2023-01-26T15:40:10.758Z,11.85
2023-01-26T15:45:23.472Z,11.82
2023-01-26T15:50:28.094Z,15.82
2023-01-26T15:55:33.423Z,11.90
2023-01-26T16:00:37.124Z,13.38
2023-01-26T16:05:39.278Z,13.07
2023-01-26T16:10:42.125Z,15.00
2023-01-26T16:15:47.904Z,15.48
2023-01-26T16:20:50.189Z,15.18
2023-01-26T16:25:53.285Z,17.52
2023-01-26T16:30:56.887Z,16.25
2023-01-26T16:35:59.080Z,12.15
2023-01-26T16:41:01.296Z,10.00
2023-01-26T16:46:04.954Z,11.43
2023-01-26T16:51:20.275Z,15.93
2023-01-26T16:56:23.386Z,14.15
2023-01-26T17:01:30.632Z,11.25
2023-01-26T17:11:34.713Z,15.70
2023-01-26T17:16:38.347Z,16.30
2023-01-26T17:21:40.651Z,18.73
2023-01-26T17:26:42.781Z,16.73
2023-01-26T17:31:46.399Z,9.80
2023-01-26T17:36:48.540Z,7.68
2023-01-26T17:41:53.704Z,17.10
2023-01-26T17:46:57.204Z,10.38
2023-01-26T17:51:59.320Z,9.75
2023-01-26T17:57:01.753Z,26.80
2023-01-26T18:02:05.290Z,14.52
2023-01-26T18:07:07.511Z,11.05
2023-01-26T18:12:09.751Z,16.67
2023-01-26T18:17:13.707Z,15.15
2023-01-26T18:22:15.796Z,13.88
2023-01-26T18:27:19.956Z,12.35
2023-01-26T18:32:24.409Z,14.27
2023-01-26T18:37:32.166Z,15.07
2023-01-26T18:42:35.172Z,12.80
2023-01-26T18:47:38.957Z,18.08
2023-01-26T18:52:41.686Z,11.38
2023-01-26T18:57:43.855Z,15.27
2023-01-26T19:02:49.070Z,13.50
2023-01-26T19:07:51.248Z,11.38
2023-01-26T19:12:53.361Z,19.10
2023-01-26T19:17:57.255Z,16.35
2023-01-26T19:23:02.547Z,9.10
2023-01-26T19:28:05.517Z,10.20
2023-01-26T19:33:09.447Z,13.02
2023-01-26T19:38:13.634Z,11.73
2023-01-26T19:43:17.254Z,7.03
2023-01-26T19:48:24.287Z,15.43
2023-01-26T19:53:26.686Z,16.05
2023-01-26T19:58:29.008Z,12.90
2023-01-26T20:03:33.341Z,18.88
2023-01-26T20:08:35.698Z,13.40
2023-01-26T20:13:38.533Z,14.95
2023-01-26T20:18:42.557Z,12.05
2023-01-26T20:23:53.906Z,11.88
2023-01-26T20:28:58.430Z,13.00
2023-01-26T20:34:02.685Z,13.40
2023-01-26T20:39:08.125Z,14.48
2023-01-26T20:44:11.220Z,11.75
2023-01-26T20:49:17.885Z,14.60
2023-01-26T20:54:20.913Z,17.65
2023-01-26T20:59:25.897Z,17.65
2023-01-26T21:04:32.683Z,18.00
2023-01-26T21:09:35.289Z,16.73
2023-01-26T21:14:38.152Z,11.98
2023-01-26T21:25:46.577Z,11.10
2023-01-26T21:30:57.874Z,11.30
2023-01-26T21:36:01.967Z,11.32
2023-01-26T21:41:07.082Z,10.38
2023-01-26T21:46:09.271Z,11.77
2023-01-26T21:51:11.494Z,8.25
2023-01-26T21:56:16.422Z,10.80
2023-01-26T22:01:18.657Z,7.78
2023-01-26T22:06:20.807Z,8.07
2023-01-26T22:11:24.510Z,5.45
2023-01-26T22:16:27.090Z,5.95
2023-01-26T22:21:29.349Z,7.60
2023-01-26T22:26:32.836Z,8.27
2023-01-26T22:31:35.362Z,6.10
2023-01-26T22:36:37.682Z,6.00
2023-01-26T22:41:41.203Z,4.25
2023-01-26T22:46:43.456Z,4.55
2023-01-26T22:51:45.556Z,6.55
2023-01-26T22:56:49.203Z,4.03
2023-01-26T23:01:51.295Z,5.30
2023-01-26T23:06:53.363Z,5.20
2023-01-26T23:11:56.872Z,3.88
2023-01-26T23:16:59.017Z,4.57
2023-01-26T23:22:01.123Z,4.55
2023-01-26T23:27:04.772Z,4.00
2023-01-26T23:32:07.101Z,5.43
2023-01-26T23:37:09.180Z,4.47
2023-01-26T23:42:14.872Z,5.85
2023-01-26T23:47:17.970Z,4.57
2023-01-26T23:52:20.166Z,8.10
2023-01-26T23:57:23.808Z,4.72
